Time;durP1;ratioP1;P1;durP2;ratioP2;P2;SDS_P1;SDS_P2;PMS_P1;PMS_P2;Temp;Humidity;BMP_temperature;BMP_pressure;BME280_temperature;BME280_humidity;BME280_pressure;Samples;Min_cycle;Max_cycle;Signal;HPM_P1;HPM_P2
2022/05/25 00:00:25;;;;;;;;;0.00;0.00;;;;;15.92;54.26;101303.75;2445402;27;44669;-86
2022/05/25 00:01:36;;;;;;;;;0.75;0.75;;;;;15.92;54.47;101297.56;2454353;27;47698;-87
2022/05/25 00:02:47;;;;;;;;;1.75;1.00;;;;;15.91;54.53;101296.69;2446988;28;45259;-87
2022/05/25 00:03:57;;;;;;;;;1.25;1.25;;;;;15.91;54.57;101302.00;2452943;27;48281;-93
2022/05/25 00:05:11;;;;;;;;;1.75;0.75;;;;;15.91;54.57;101296.69;2460366;27;44630;-93
2022/05/25 00:06:21;;;;;;;;;1.00;1.00;;;;;15.90;54.65;101302.91;2463162;27;45573;-94
2022/05/25 00:07:32;;;;;;;;;2.00;1.00;;;;;15.90;54.66;101297.63;2462606;27;45613;-93
2022/05/25 00:08:43;;;;;;;;;1.00;1.00;;;;;15.90;54.81;101294.13;2462626;27;45557;-94
2022/05/25 00:09:53;;;;;;;;;1.00;1.00;;;;;15.89;54.66;101293.28;2461901;27;45305;-93
2022/05/25 00:11:05;;;;;;;;;1.00;1.00;;;;;15.90;54.62;101300.28;2459173;27;45387;-94
2022/05/25 00:12:16;;;;;;;;;1.25;1.25;;;;;15.90;54.87;101294.97;2451688;28;45163;-87
2022/05/25 00:13:27;;;;;;;;;1.00;1.00;;;;;15.87;54.88;101300.44;2444258;28;47121;-87
2022/05/25 00:14:37;;;;;;;;;1.00;1.00;;;;;15.88;54.85;101302.13;2449354;28;45317;-88
2022/05/25 00:15:48;;;;;;;;;1.00;1.00;;;;;15.85;55.18;101292.53;2451768;27;45516;-87
2022/05/25 00:16:59;;;;;;;;;1.50;1.00;;;;;15.85;54.91;101297.84;2454351;27;44650;-87
2022/05/25 00:18:09;;;;;;;;;1.00;1.00;;;;;15.85;54.94;101297.00;2458528;27;45514;-87
2022/05/25 00:20:49;;;;;;;;;1.00;1.00;;;;;15.80;54.91;101291.06;2452119;28;45253;-87
2022/05/25 00:22:00;;;;;;;;;3.00;1.25;;;;;15.79;55.17;101291.97;2455971;27;44675;-87
2022/05/25 00:23:10;;;;;;;;;0.75;0.75;;;;;15.77;55.09;101297.34;2446320;27;48022;-87
2022/05/25 00:24:21;;;;;;;;;4.00;1.00;;;;;15.77;55.22;101293.84;2454231;27;45296;-83
2022/05/25 00:25:35;;;;;;;;;1.25;1.00;;;;;15.77;55.20;101296.50;2463874;27;47877;-83
2022/05/25 00:26:46;;;;;;;;;1.00;1.00;;;;;15.75;55.38;101297.41;2461238;27;45211;-84
2022/05/25 00:27:57;;;;;;;;;1.00;1.00;;;;;15.75;55.39;101297.41;2461301;27;46462;-83
2022/05/25 00:29:07;;;;;;;;;1.75;0.50;;;;;15.75;55.52;101296.56;2461246;27;45228;-85
2022/05/25 00:30:18;;;;;;;;;1.50;1.50;;;;;15.73;55.13;101291.31;2454979;27;45495;-86
2022/05/25 00:31:30;;;;;;;;;1.75;1.00;;;;;15.72;55.33;101291.41;2454863;27;45246;-86
2022/05/25 00:32:42;;;;;;;;;1.00;1.00;;;;;15.70;55.60;101293.28;2461944;27;45522;-86
2022/05/25 00:33:52;;;;;;;;;1.50;1.50;;;;;15.70;55.66;101298.56;2453295;27;45471;-90
2022/05/25 00:35:04;;;;;;;;;1.00;1.00;;;;;15.69;55.47;101300.34;2459017;27;46165;-90
2022/05/25 00:36:14;;;;;;;;;1.50;1.00;;;;;15.67;55.50;101296.91;2458853;27;44680;-85
2022/05/25 00:37:25;;;;;;;;;1.00;1.00;;;;;15.66;55.78;101300.47;2457805;27;47267;-89
2022/05/25 00:38:36;;;;;;;;;1.25;1.25;;;;;15.65;55.56;101296.13;2455094;27;45163;-93
2022/05/25 00:39:46;;;;;;;;;1.00;1.00;;;;;15.64;55.76;101297.03;2451444;27;48089;-92
2022/05/25 00:40:58;;;;;;;;;1.00;1.00;;;;;15.63;55.76;101293.53;2455340;27;45510;-92
2022/05/25 00:42:08;;;;;;;;;1.00;1.00;;;;;15.63;55.67;101303.28;2461330;27;47403;-93
2022/05/25 00:43:19;;;;;;;;;1.00;1.00;;;;;15.60;55.22;101308.72;2465458;27;45389;-91
2022/05/25 00:44:29;;;;;;;;;3.00;1.00;;;;;15.58;55.45;101303.47;2454146;27;46263;-91
2022/05/25 00:45:48;;;;;;;;;2.00;1.00;;;;;15.54;55.26;101312.50;2461730;27;44574;-92
2022/05/25 00:46:58;;;;;;;;;1.25;1.00;;;;;15.51;55.77;101309.97;2452143;27;46667;-92
2022/05/25 00:48:28;;;;;;;;;4.50;1.25;;;;;15.50;55.83;101313.56;2457049;27;45400;-90
2022/05/25 00:49:39;;;;;;;;;1.00;0.25;;;;;15.49;56.13;101312.72;2461255;27;47068;-91
2022/05/25 00:52:19;;;;;;;;;0.50;0.50;;;;;15.50;56.11;101313.56;2446974;28;45184;-83
2022/05/25 00:53:29;;;;;;;;;2.00;2.00;;;;;15.48;55.92;101310.16;2456473;27;45345;-83
2022/05/25 00:54:51;;;;;;;;;0.50;0.25;;;;;15.48;55.90;101310.97;2457701;27;47941;-83
2022/05/25 00:56:04;;;;;;;;;1.00;1.00;;;;;15.46;55.94;101309.34;2461621;27;45431;-83
2022/05/25 00:57:18;;;;;;;;;1.00;1.00;;;;;15.46;56.36;101312.00;2451763;27;46261;-83
2022/05/25 00:58:29;;;;;;;;;0.00;0.00;;;;;15.44;56.42;101316.47;2451880;27;44893;-82
2022/05/25 00:59:58;;;;;;;;;1.00;1.00;;;;;15.45;56.49;101318.22;2451870;27;45363;-82
2022/05/25 01:01:08;;;;;;;;;1.75;1.75;;;;;15.42;56.12;101313.91;2453179;27;45179;-82
2022/05/25 01:02:19;;;;;;;;;2.00;1.00;;;;;15.41;56.37;101309.53;2461163;27;45632;-82
2022/05/25 01:03:30;;;;;;;;;0.50;0.50;;;;;15.41;56.52;101321.00;2453500;27;45248;-82
2022/05/25 01:04:40;;;;;;;;;1.00;1.00;;;;;15.41;56.48;101320.13;2451716;27;45777;-82
2022/05/25 01:06:01;;;;;;;;;0.25;0.25;;;;;15.40;56.50;101318.41;2451922;27;44698;-83
2022/05/25 01:07:53;;;;;;;;;0.75;0.00;;;;;15.38;56.44;101318.47;2458850;27;46829;-83
2022/05/25 01:09:31;;;;;;;;;1.00;1.00;;;;;15.38;56.54;101320.28;2452596;27;45263;-83
2022/05/25 01:10:59;;;;;;;;;0.00;0.00;;;;;15.35;56.62;101326.56;2447163;28;47022;-83
2022/05/25 01:12:34;;;;;;;;;0.00;0.00;;;;;15.34;56.65;101326.63;2451623;28;44710;-83
2022/05/25 01:14:14;;;;;;;;;1.50;1.50;;;;;15.30;56.77;101320.63;2451643;28;46731;-83
2022/05/25 01:15:45;;;;;;;;;1.25;1.00;;;;;15.28;56.69;101336.56;2452082;27;44719;-83
2022/05/25 01:17:37;;;;;;;;;0.75;0.75;;;;;15.26;56.81;101332.28;2456341;27;47013;-83
2022/05/25 01:18:56;;;;;;;;;1.50;1.00;;;;;15.24;57.16;101331.47;2461578;27;44743;-83
2022/05/25 01:20:18;;;;;;;;;1.00;1.00;;;;;15.21;56.57;101324.50;2461438;27;47096;-83
2022/05/25 01:21:50;;;;;;;;;1.50;1.00;;;;;15.16;56.73;101332.66;2461355;27;45219;-83
2022/05/25 01:23:19;;;;;;;;;1.00;1.00;;;;;15.18;57.10;101335.25;2457151;27;47326;-83
2022/05/25 01:24:38;;;;;;;;;1.00;1.00;;;;;15.14;57.08;101331.00;2451524;28;44538;-83
2022/05/25 01:25:59;;;;;;;;;1.00;1.00;;;;;15.15;57.24;101338.03;2461746;27;47259;-83
2022/05/25 01:27:34;;;;;;;;;1.00;1.00;;;;;15.14;57.31;101337.16;2456966;27;45460;-83
2022/05/25 01:29:07;;;;;;;;;0.00;0.00;;;;;15.13;57.42;101343.41;2451525;27;46498;-83
2022/05/25 01:30:20;;;;;;;;;1.00;1.00;;;;;15.12;57.12;101338.16;2458304;27;45220;-91
2022/05/25 01:31:47;;;;;;;;;1.00;0.00;;;;;15.10;57.02;101338.22;2458649;27;45715;-88
2022/05/25 01:33:16;;;;;;;;;1.00;0.50;;;;;15.09;57.29;101335.66;2451698;27;44777;-87
2022/05/25 01:34:49;;;;;;;;;0.00;0.00;;;;;15.07;57.24;101338.34;2450842;28;47593;-87
2022/05/25 01:36:09;;;;;;;;;0.50;0.00;;;;;15.06;57.26;101336.66;2450721;28;45401;-87
2022/05/25 01:37:25;;;;;;;;;0.00;0.00;;;;;15.04;57.66;101339.34;2451486;27;45774;-86
2022/05/25 01:38:51;;;;;;;;;1.00;1.00;;;;;15.01;57.51;101336.84;2450945;27;45282;-86
2022/05/25 01:40:38;;;;;;;;;0.75;0.75;;;;;15.00;57.50;101339.53;2451868;27;48386;-84
2022/05/25 01:42:07;;;;;;;;;2.00;2.00;;;;;15.00;57.68;101347.47;2440871;28;45719;-85
2022/05/25 01:43:38;;;;;;;;;0.25;0.25;;;;;14.98;57.47;101347.56;2449617;27;45897;-84
2022/05/25 01:44:56;;;;;;;;;0.75;0.00;;;;;14.97;57.53;101351.09;2450923;28;45231;-85
2022/05/25 01:46:18;;;;;;;;;1.00;1.00;;;;;14.96;57.61;101354.69;2450951;28;45662;-85
2022/05/25 01:47:33;;;;;;;;;0.50;0.00;;;;;14.96;57.62;101352.06;2466926;27;45187;-84
2022/05/25 01:48:45;;;;;;;;;1.00;1.00;;;;;14.94;57.84;101359.16;2460165;27;47283;-85
2022/05/25 01:50:03;;;;;;;;;0.50;0.50;;;;;14.93;57.85;101355.69;2461034;27;45234;-85
2022/05/25 01:51:23;;;;;;;;;1.50;1.00;;;;;14.91;57.75;101360.19;2460197;27;46545;-85
2022/05/25 01:52:40;;;;;;;;;1.00;1.00;;;;;14.92;57.87;101361.03;2451678;27;45321;-86
2022/05/25 01:53:58;;;;;;;;;2.00;1.25;;;;;14.90;57.93;101355.81;2458093;27;47781;-88
2022/05/25 01:55:15;;;;;;;;;1.00;1.00;;;;;14.89;57.85;101362.00;2454559;27;45280;-86
2022/05/25 01:56:28;;;;;;;;;1.00;1.00;;;;;14.88;58.03;101354.16;2458748;27;46672;-83
2022/05/25 01:57:46;;;;;;;;;1.25;1.00;;;;;14.88;57.99;101359.44;2451600;27;45172;-83
2022/05/25 01:59:01;;;;;;;;;1.25;1.00;;;;;14.84;57.88;101359.53;2451124;27;45444;-83
2022/05/25 02:00:27;;;;;;;;;2.50;1.00;;;;;14.85;57.88;101360.41;2451533;27;45325;-83
2022/05/25 02:04:57;;;;;;;;;1.00;1.00;;;;;14.81;58.14;101358.81;2461309;27;45750;-83
2022/05/25 02:06:19;;;;;;;;;1.50;0.00;;;;;14.81;58.55;101364.97;2451741;27;45336;-83
2022/05/25 02:07:58;;;;;;;;;1.00;0.00;;;;;14.80;58.43;101360.59;2448258;27;47160;-83
2022/05/25 02:09:34;;;;;;;;;1.50;0.50;;;;;14.79;58.37;101369.44;2450987;27;45256;-83
2022/05/25 02:10:51;;;;;;;;;2.25;1.00;;;;;14.78;58.42;101362.44;2448754;27;46644;-85
2022/05/25 02:12:07;;;;;;;;;0.00;0.00;;;;;14.78;58.36;101361.56;2453937;27;44786;-84
2022/05/25 02:14:02;;;;;;;;;1.00;1.00;;;;;14.77;58.23;101363.34;2459754;27;46255;-85
2022/05/25 02:15:37;;;;;;;;;0.50;0.50;;;;;14.79;58.67;101369.44;2448181;27;45219;-85
2022/05/25 02:17:17;;;;;;;;;0.50;0.50;;;;;14.78;58.67;101366.88;2451223;27;45725;-86
2022/05/25 02:18:36;;;;;;;;;0.00;0.00;;;;;14.79;58.50;101372.09;2454108;27;44770;-87
2022/05/25 02:20:21;;;;;;;;;1.00;1.00;;;;;14.81;58.62;101370.25;2455555;27;47039;-87
2022/05/25 02:21:46;;;;;;;;;1.00;1.00;;;;;14.81;58.67;101367.63;2450391;27;45320;-87
2022/05/25 02:23:04;;;;;;;;;0.75;0.00;;;;;14.83;58.83;101367.53;2460366;27;47144;-86
2022/05/25 02:24:37;;;;;;;;;0.75;0.75;;;;;14.84;58.48;101372.75;2459533;27;44642;-86
2022/05/25 02:25:53;;;;;;;;;1.00;1.00;;;;;14.83;58.74;101371.06;2451602;27;46569;-90
2022/05/25 02:27:18;;;;;;;;;3.00;1.00;;;;;14.84;58.91;101366.63;2456817;27;45501;-90
2022/05/25 02:28:39;;;;;;;;;0.75;0.75;;;;;14.86;58.41;101370.09;2450667;28;45274;-87
2022/05/25 02:29:56;;;;;;;;;1.75;1.00;;;;;14.87;58.59;101374.44;2451403;27;45214;-87
2022/05/25 02:31:11;;;;;;;;;1.25;1.00;;;;;14.87;58.53;101373.59;2451019;28;46529;-88
2022/05/25 02:32:32;;;;;;;;;0.00;0.00;;;;;14.87;58.45;101374.44;2451199;27;44737;-87
2022/05/25 02:33:47;;;;;;;;;2.00;1.00;;;;;14.88;58.19;101377.97;2454512;27;47805;-87
2022/05/25 02:34:58;;;;;;;;;1.00;1.00;;;;;14.87;58.69;101378.88;2462581;27;45227;-86
2022/05/25 02:36:11;;;;;;;;;1.00;1.00;;;;;14.89;58.72;101377.06;2457475;27;45358;-86
2022/05/25 02:37:25;;;;;;;;;1.00;1.00;;;;;14.88;58.82;101370.03;2451099;27;45220;-86
2022/05/25 02:38:38;;;;;;;;;0.25;0.25;;;;;14.88;58.47;101373.53;2451083;27;45347;-91
2022/05/25 02:39:55;;;;;;;;;0.00;0.00;;;;;14.88;58.88;101365.59;2452539;27;44696;-90
2022/05/25 02:41:09;;;;;;;;;1.00;1.00;;;;;14.88;58.72;101370.91;2451188;27;45743;-89
2022/05/25 02:42:20;;;;;;;;;2.00;1.00;;;;;14.88;58.64;101372.66;2458063;27;45285;-88
2022/05/25 02:43:30;;;;;;;;;1.25;1.00;;;;;14.88;59.07;101380.63;2450970;27;46228;-89
2022/05/25 02:44:41;;;;;;;;;1.00;1.00;;;;;14.86;58.55;101372.75;2451151;27;44794;-85
2022/05/25 02:45:52;;;;;;;;;1.00;1.00;;;;;14.87;58.70;101373.59;2452765;27;47155;-84
2022/05/25 02:47:02;;;;;;;;;1.00;1.00;;;;;14.85;58.86;101376.28;2460644;27;45332;-88
2022/05/25 02:48:13;;;;;;;;;1.00;1.00;;;;;14.84;58.90;101375.41;2458145;27;45298;-88
2022/05/25 02:49:23;;;;;;;;;2.75;1.00;;;;;14.83;58.68;101386.94;2456132;27;45239;-87
2022/05/25 02:50:34;;;;;;;;;0.00;0.00;;;;;14.82;58.52;101379.91;2451057;27;45375;-87
2022/05/25 02:51:45;;;;;;;;;1.00;1.00;;;;;14.82;58.80;101376.38;2451077;27;45333;-86
2022/05/25 02:52:56;;;;;;;;;3.50;1.00;;;;;14.79;58.78;101393.25;2450885;27;45444;-84
2022/05/25 02:54:08;;;;;;;;;1.75;1.00;;;;;14.79;58.72;101382.66;2454032;27;45333;-91
2022/05/25 02:55:19;;;;;;;;;1.00;1.00;;;;;14.79;58.86;101392.41;2447688;28;47091;-95
2022/05/25 02:56:33;;;;;;;;;0.50;0.50;;;;;14.76;58.82;101384.59;2453087;27;45233;-92
2022/05/25 02:57:43;;;;;;;;;1.00;1.00;;;;;14.77;59.03;101388.94;2460860;27;46558;-92
2022/05/25 02:58:54;;;;;;;;;1.00;1.00;;;;;14.74;59.02;101384.66;2452130;27;45319;-89
2022/05/25 03:00:07;;;;;;;;;1.00;1.00;;;;;14.74;58.70;101395.25;2450040;27;46977;-90
2022/05/25 03:01:17;;;;;;;;;3.00;1.50;;;;;14.72;59.31;101391.78;2444109;28;44625;-91
2022/05/25 03:02:28;;;;;;;;;0.00;0.00;;;;;14.72;59.12;101395.28;2456070;27;48076;-91
2022/05/25 03:03:39;;;;;;;;;1.50;1.50;;;;;14.71;59.28;101387.44;2460261;27;45329;-90
2022/05/25 03:04:49;;;;;;;;;1.00;0.50;;;;;14.69;58.94;101390.13;2443755;28;47117;-91
2022/05/25 03:06:00;;;;;;;;;2.00;1.50;;;;;14.68;58.94;101392.84;2443279;28;45188;-92
2022/05/25 03:07:10;;;;;;;;;0.00;0.00;;;;;14.68;59.17;101390.19;2457007;27;45522;-93
2022/05/25 03:08:20;;;;;;;;;1.00;1.00;;;;;14.66;58.87;101397.31;2453337;27;45262;-92
2022/05/25 03:09:31;;;;;;;;;1.25;1.00;;;;;14.65;58.97;101407.03;2460380;27;46841;-92
2022/05/25 03:10:41;;;;;;;;;0.00;0.00;;;;;14.62;59.33;101396.56;2466801;27;45308;-92
2022/05/25 03:11:53;;;;;;;;;1.00;1.00;;;;;14.60;58.87;101404.59;2460839;27;46072;-92
2022/05/25 03:13:08;;;;;;;;;1.00;1.00;;;;;14.60;58.94;101401.94;2453173;27;45337;-92
2022/05/25 03:14:18;;;;;;;;;0.50;0.50;;;;;14.58;59.01;101406.44;2452767;28;45392;-93
2022/05/25 03:15:29;;;;;;;;;0.00;0.00;;;;;14.56;59.15;101404.75;2453429;27;44663;-86
2022/05/25 03:16:39;;;;;;;;;2.00;2.00;;;;;14.57;59.35;101409.16;2452941;27;45284;-86
2022/05/25 03:17:49;;;;;;;;;1.00;1.00;;;;;14.56;59.23;101412.69;2460093;27;45212;-86
2022/05/25 03:19:00;;;;;;;;;2.50;1.00;;;;;14.55;59.32;101417.13;2457876;27;46934;-86
2022/05/25 03:20:11;;;;;;;;;2.00;1.25;;;;;14.54;59.26;101420.72;2452242;28;44659;-87
2022/05/25 03:21:21;;;;;;;;;1.25;1.25;;;;;14.54;59.31;101419.84;2452363;27;46583;-87
2022/05/25 03:22:34;;;;;;;;;2.00;1.25;;;;;14.52;59.60;101430.47;2452634;27;45234;-88
2022/05/25 03:23:44;;;;;;;;;1.00;1.00;;;;;14.51;59.36;101420.81;2451971;27;47295;-96
2022/05/25 03:24:55;;;;;;;;;1.25;1.25;;;;;14.51;59.60;101428.75;2453952;27;45255;-94
2022/05/25 03:26:05;;;;;;;;;1.75;1.00;;;;;14.50;59.34;101427.00;2462448;27;46500;-87
2022/05/25 03:27:16;;;;;;;;;1.00;1.00;;;;;14.49;59.30;101427.97;2461965;27;45236;-87
2022/05/25 03:28:27;;;;;;;;;1.25;1.25;;;;;14.48;59.58;101426.22;2461667;27;45577;-87
2022/05/25 03:29:37;;;;;;;;;2.00;2.00;;;;;14.47;59.49;101429.81;2462527;27;45147;-86
2022/05/25 03:30:48;;;;;;;;;1.00;1.00;;;;;14.45;59.51;101428.97;2451776;28;47516;-87
2022/05/25 03:31:59;;;;;;;;;1.75;1.00;;;;;14.44;59.53;101429.91;2458371;27;45417;-87
2022/05/25 03:33:09;;;;;;;;;1.00;1.00;;;;;14.43;59.47;101425.53;2456430;27;46389;-87
2022/05/25 03:34:20;;;;;;;;;1.00;1.00;;;;;14.43;59.69;101436.09;2452676;27;45184;-87
2022/05/25 03:35:30;;;;;;;;;1.00;1.00;;;;;14.41;59.48;101438.81;2452477;27;46278;-87
2022/05/25 03:36:40;;;;;;;;;1.00;1.00;;;;;14.42;59.68;101444.97;2460042;27;45337;-86
2022/05/25 03:37:51;;;;;;;;;1.00;1.00;;;;;14.39;59.92;101443.31;2454238;27;47020;-85
2022/05/25 03:39:01;;;;;;;;;3.25;2.00;;;;;14.39;59.61;101446.81;2460427;27;44781;-86
2022/05/25 03:40:14;;;;;;;;;1.00;1.00;;;;;14.39;59.90;101443.31;2451389;28;46908;-85
2022/05/25 03:41:24;;;;;;;;;1.00;1.00;;;;;14.37;59.69;101443.34;2452177;27;44624;-87
2022/05/25 03:42:35;;;;;;;;;2.00;2.00;;;;;14.36;59.83;101432.84;2461710;27;46428;-86
2022/05/25 03:43:46;;;;;;;;;2.00;1.00;;;;;14.35;59.76;101439.91;2454269;27;45309;-87
2022/05/25 03:44:56;;;;;;;;;1.50;1.00;;;;;14.35;59.83;101441.69;2451772;27;45671;-87
2022/05/25 03:46:06;;;;;;;;;2.00;1.00;;;;;14.35;59.87;101439.03;2451769;28;45270;-87
2022/05/25 03:47:17;;;;;;;;;2.00;2.00;;;;;14.33;59.56;101443.53;2456711;27;45428;-87
2022/05/25 03:48:28;;;;;;;;;2.75;1.00;;;;;14.31;59.84;101443.59;2462494;27;45226;-88
2022/05/25 03:49:38;;;;;;;;;2.00;2.00;;;;;14.31;59.84;101445.38;2458730;27;48185;-87
2022/05/25 03:50:49;;;;;;;;;1.00;1.00;;;;;14.29;60.53;101448.09;2458859;27;44630;-87
2022/05/25 03:52:00;;;;;;;;;0.25;0.25;;;;;14.29;59.80;101453.38;2458639;27;46318;-92
2022/05/25 03:53:14;;;;;;;;;2.00;2.00;;;;;14.26;60.38;101453.47;2451721;28;45369;-88
2022/05/25 03:54:25;;;;;;;;;4.00;1.00;;;;;14.26;59.88;101461.41;2445184;28;47116;-88
2022/05/25 03:55:35;;;;;;;;;2.00;2.00;;;;;14.23;60.20;101465.03;2457606;27;45249;-86
2022/05/25 03:56:45;;;;;;;;;1.00;1.00;;;;;14.24;60.11;101465.91;2461140;27;47251;-86
2022/05/25 03:57:56;;;;;;;;;0.00;0.00;;;;;14.22;60.04;101473.91;2461728;27;45239;-86
2022/05/25 03:59:07;;;;;;;;;4.00;2.00;;;;;14.22;60.28;101473.91;2461403;27;47630;-86
2022/05/25 04:00:18;;;;;;;;;2.00;2.00;;;;;14.22;60.37;101478.31;2454323;27;45233;-86
2022/05/25 04:01:31;;;;;;;;;1.50;1.25;;;;;14.20;59.99;101475.72;2458350;27;45664;-87
2022/05/25 04:02:41;;;;;;;;;2.00;2.00;;;;;14.20;60.19;101474.88;2453948;27;45176;-87
2022/05/25 04:03:51;;;;;;;;;1.00;1.00;;;;;14.20;60.03;101482.81;2461713;27;46860;-85
2022/05/25 04:05:08;;;;;;;;;1.75;1.75;;;;;14.18;60.31;101478.41;2453681;27;45371;-86
2022/05/25 04:06:19;;;;;;;;;1.75;1.75;;;;;14.16;60.68;101480.25;2465890;27;47260;-87
2022/05/25 04:07:29;;;;;;;;;2.00;2.00;;;;;14.16;60.28;101476.75;2465330;27;45270;-88
2022/05/25 04:08:40;;;;;;;;;2.00;2.00;;;;;14.13;60.37;101472.44;2453047;27;46771;-87
2022/05/25 04:09:50;;;;;;;;;2.00;1.00;;;;;14.13;60.30;101475.06;2454084;27;44785;-87
2022/05/25 04:11:00;;;;;;;;;2.00;2.00;;;;;14.12;60.61;101464.56;2455868;27;45456;-87
2022/05/25 04:12:11;;;;;;;;;3.00;1.00;;;;;14.13;60.47;101471.56;2461442;27;45388;-86
2022/05/25 04:13:22;;;;;;;;;2.00;2.00;;;;;14.13;60.66;101467.16;2451564;27;45611;-88
2022/05/25 04:14:32;;;;;;;;;2.00;2.00;;;;;14.12;60.73;101469.88;2458489;27;45458;-85
2022/05/25 04:15:43;;;;;;;;;1.25;1.25;;;;;14.11;60.49;101466.34;2455801;27;47100;-86
2022/05/25 04:16:53;;;;;;;;;1.00;1.00;;;;;14.12;60.71;101464.56;2451721;28;45377;-86
2022/05/25 04:18:04;;;;;;;;;2.00;2.00;;;;;14.11;60.59;101471.63;2452126;27;45660;-86
2022/05/25 04:19:15;;;;;;;;;1.50;1.50;;;;;14.10;60.85;101464.59;2452261;27;45415;-86
2022/05/25 04:20:27;;;;;;;;;2.00;2.00;;;;;14.11;61.01;101476.91;2452052;27;46502;-86
2022/05/25 04:21:39;;;;;;;;;2.00;2.00;;;;;14.12;60.88;101475.16;2452830;27;45247;-86
2022/05/25 04:22:51;;;;;;;;;1.00;1.00;;;;;14.11;60.81;101487.50;2461703;27;46175;-86
2022/05/25 04:24:02;;;;;;;;;2.00;2.00;;;;;14.11;61.24;101474.28;2459136;27;45224;-86
2022/05/25 04:25:16;;;;;;;;;3.00;3.00;;;;;14.11;61.22;101476.91;2459919;27;47547;-86
2022/05/25 04:26:28;;;;;;;;;3.25;3.00;;;;;14.11;61.25;101471.63;2462121;27;45184;-86
2022/05/25 04:27:43;;;;;;;;;1.75;1.75;;;;;14.12;60.90;101475.16;2451890;27;48006;-87
2022/05/25 04:28:54;;;;;;;;;2.25;2.25;;;;;14.12;61.28;101476.03;2451587;28;45498;-86
2022/05/25 04:30:07;;;;;;;;;2.00;2.00;;;;;14.13;61.17;101475.06;2452206;27;45256;-86
2022/05/25 04:31:18;;;;;;;;;2.75;2.75;;;;;14.13;61.25;101471.56;2453793;27;45334;-90
2022/05/25 04:32:28;;;;;;;;;2.00;2.00;;;;;14.13;61.06;101477.72;2461591;27;46668;-91
2022/05/25 04:33:40;;;;;;;;;4.25;3.00;;;;;14.16;61.19;101482.03;2461837;27;45206;-88
2022/05/25 04:34:50;;;;;;;;;3.00;3.00;;;;;14.16;60.97;101482.91;2457022;27;45521;-88
2022/05/25 04:36:01;;;;;;;;;1.25;1.25;;;;;14.16;61.06;101482.03;2452147;27;45309;-88
2022/05/25 04:38:40;;;;;;;;;2.00;2.00;;;;;14.18;61.11;101489.00;2452195;28;45373;-88
2022/05/25 04:39:51;;;;;;;;;2.00;2.00;;;;;14.18;61.26;101494.28;2457722;27;46241;-91
2022/05/25 04:41:02;;;;;;;;;3.00;2.00;;;;;14.18;61.13;101494.28;2455571;27;45183;-90
2022/05/25 04:42:12;;;;;;;;;5.00;3.00;;;;;14.19;61.06;101497.78;2453771;27;45419;-90
2022/05/25 04:43:24;;;;;;;;;5.00;3.00;;;;;14.20;61.41;101501.31;2451241;28;45269;-89
2022/05/25 04:44:34;;;;;;;;;2.50;2.50;;;;;14.20;61.19;101504.78;2455989;27;45400;-90
2022/05/25 04:45:47;;;;;;;;;1.75;1.75;;;;;14.21;61.34;101503.03;2455142;27;45364;-92
2022/05/25 04:46:58;;;;;;;;;4.25;2.00;;;;;14.21;61.06;101503.03;2461360;27;45392;-92
2022/05/25 04:48:09;;;;;;;;;2.25;1.25;;;;;14.22;61.36;101510.03;2462125;27;45242;-92
2022/05/25 04:49:19;;;;;;;;;4.25;2.00;;;;;14.21;61.41;101498.59;2447602;28;46638;-92
2022/05/25 04:50:33;;;;;;;;;2.00;2.00;;;;;14.24;61.32;101500.28;2447364;27;45240;-89
2022/05/25 04:51:44;;;;;;;;;3.00;3.00;;;;;14.22;61.51;101502.97;2454062;27;47097;-91
2022/05/25 04:52:59;;;;;;;;;1.00;1.00;;;;;14.24;61.56;101509.06;2451181;27;45232;-93
2022/05/25 04:54:09;;;;;;;;;2.50;2.50;;;;;14.25;61.70;101504.63;2457470;27;45262;-92
2022/05/25 04:58:33;;;;;;;;;3.00;2.50;;;;;14.27;61.39;101505.47;2460942;27;45237;-89
2022/05/25 04:59:44;;;;;;;;;1.00;1.00;;;;;14.28;61.78;101510.69;2458513;27;47876;-90
2022/05/25 05:00:54;;;;;;;;;2.50;2.50;;;;;14.29;61.89;101516.84;2451544;28;45373;-89
2022/05/25 05:02:05;;;;;;;;;5.00;3.75;;;;;14.29;61.28;101512.41;2469411;27;47445;-89
2022/05/25 05:03:16;;;;;;;;;3.50;2.00;;;;;14.31;61.59;101522.94;2465619;27;45312;-89
2022/05/25 05:04:27;;;;;;;;;3.75;3.00;;;;;14.31;61.42;101515.00;2452091;27;47284;-89
2022/05/25 05:05:38;;;;;;;;;3.00;2.50;;;;;14.33;61.31;101525.50;2453825;27;45354;-89
2022/05/25 05:06:49;;;;;;;;;4.00;3.00;;;;;14.33;61.71;101529.00;2453378;27;47012;-90
2022/05/25 05:07:59;;;;;;;;;3.25;3.25;;;;;14.33;61.74;101523.72;2453424;27;45294;-90
2022/05/25 05:09:11;;;;;;;;;3.00;3.00;;;;;14.35;61.44;101523.66;2453864;27;47654;-89
2022/05/25 05:10:21;;;;;;;;;2.25;2.25;;;;;14.36;61.41;101534.22;2454349;27;45398;-89
2022/05/25 05:11:31;;;;;;;;;3.50;3.25;;;;;14.37;61.24;101524.50;2457493;27;47114;-89
2022/05/25 05:12:42;;;;;;;;;2.50;2.50;;;;;14.37;61.58;101527.97;2460851;27;45375;-90
2022/05/25 05:13:52;;;;;;;;;4.00;4.00;;;;;14.39;61.74;101533.22;2456991;27;47700;-90
2022/05/25 05:15:03;;;;;;;;;3.00;3.00;;;;;14.40;61.84;101530.53;2451521;27;45179;-90
2022/05/25 05:16:16;;;;;;;;;3.75;3.75;;;;;14.42;61.92;101524.31;2461160;27;46538;-90
2022/05/25 05:17:26;;;;;;;;;3.75;3.25;;;;;14.43;62.00;101523.38;2454544;27;44550;-90
2022/05/25 05:18:37;;;;;;;;;2.00;2.00;;;;;14.45;61.87;101525.06;2451684;27;46501;-92
2022/05/25 05:19:47;;;;;;;;;4.75;3.25;;;;;14.46;61.74;101525.94;2451965;27;44559;-93
2022/05/25 05:20:58;;;;;;;;;4.25;4.25;;;;;14.49;61.59;101533.75;2451661;27;45617;-94
2022/05/25 05:22:08;;;;;;;;;2.50;2.50;;;;;14.50;61.84;101532.81;2456885;27;44664;-94
2022/05/25 05:23:19;;;;;;;;;6.25;3.00;;;;;14.52;61.46;101539.78;2461393;27;45354;-95
2022/05/25 05:24:32;;;;;;;;;2.50;2.50;;;;;14.53;61.89;101530.06;2461062;27;45400;-95
2022/05/25 05:25:42;;;;;;;;;3.50;3.50;;;;;14.56;61.89;101534.38;2457923;27;46436;-93
2022/05/25 05:26:53;;;;;;;;;3.75;3.75;;;;;14.57;62.02;101536.97;2456234;27;45319;-94
2022/05/25 05:28:10;;;;;;;;;3.00;3.00;;;;;14.59;61.23;101543.06;2453679;27;45353;-94
2022/05/25 05:29:22;;;;;;;;;5.25;4.50;;;;;14.61;61.09;101543.88;2452531;27;45348;-95
2022/05/25 05:30:34;;;;;;;;;3.00;3.00;;;;;14.63;61.34;101543.81;2461074;27;45348;-93
2022/05/25 05:31:45;;;;;;;;;3.00;3.00;;;;;14.65;61.50;101549.03;2456250;27;44785;-93
2022/05/25 05:32:55;;;;;;;;;4.00;3.00;;;;;14.67;61.64;101544.59;2461928;27;46337;-94
2022/05/25 05:34:06;;;;;;;;;5.75;4.00;;;;;14.69;61.30;101542.75;2459878;27;44608;-92
2022/05/25 05:35:17;;;;;;;;;3.25;3.00;;;;;14.71;61.65;101544.41;2458510;27;45647;-90
2022/05/25 05:36:34;;;;;;;;;5.75;4.25;;;;;14.74;61.76;101549.56;2460974;27;45179;-95
2022/05/25 05:37:51;;;;;;;;;5.00;4.00;;;;;14.77;61.02;101548.59;2461145;27;46562;-95
2022/05/25 05:39:05;;;;;;;;;4.00;3.25;;;;;14.79;61.04;101548.53;2461496;27;44680;-94
2022/05/25 05:40:19;;;;;;;;;3.00;2.00;;;;;14.79;60.99;101541.44;2461144;27;45584;-96
2022/05/25 05:41:38;;;;;;;;;5.00;5.00;;;;;14.82;60.70;101540.47;2452103;27;45228;-94
2022/05/25 05:42:52;;;;;;;;;3.75;3.25;;;;;14.84;61.35;101550.06;2451379;28;47091;-95
2022/05/25 05:44:05;;;;;;;;;4.25;3.25;;;;;14.89;60.97;101543.78;2456318;27;44660;-95
2022/05/25 05:45:23;;;;;;;;;5.00;4.00;;;;;14.92;60.82;101543.66;2460138;27;47442;-95
2022/05/25 05:46:36;;;;;;;;;3.00;3.00;;;;;14.94;60.94;101540.03;2451243;28;45321;-95
2022/05/25 05:47:51;;;;;;;;;4.25;3.75;;;;;14.99;61.28;101539.00;2451379;28;45471;-96
2022/05/25 05:49:04;;;;;;;;;5.25;4.00;;;;;15.01;61.15;101542.44;2451496;28;45298;-94
2022/05/25 05:50:16;;;;;;;;;4.00;4.00;;;;;15.04;61.25;101540.53;2460211;27;45380;-95
2022/05/25 05:51:27;;;;;;;;;5.25;3.75;;;;;15.07;61.14;101536.91;2461786;27;45160;-94
2022/05/25 05:52:38;;;;;;;;;4.00;3.50;;;;;15.09;61.12;101539.50;2461812;27;45584;-94
2022/05/25 05:53:49;;;;;;;;;5.00;4.25;;;;;15.13;60.70;101541.97;2461932;27;45226;-95
2022/05/25 05:54:59;;;;;;;;;4.00;4.00;;;;;15.14;60.34;101538.38;2454166;27;45251;-95
2022/05/25 05:56:11;;;;;;;;;5.25;2.50;;;;;15.17;60.35;101537.41;2454639;27;45192;-95
2022/05/25 05:57:21;;;;;;;;;2.75;2.75;;;;;15.19;60.80;101539.06;2461445;27;45380;-94